Time;durP1;ratioP1;P1;durP2;ratioP2;P2;SDS_P1;SDS_P2;PMS_P1;PMS_P2;Temp;Humidity;BMP_temperature;BMP_pressure;BME280_temperature;BME280_humidity;BME280_pressure;Samples;Min_cycle;Max_cycle;Signal;HPM_P1;HPM_P2
2021/12/25 10:10:04;;;;;;;2.53;1.00;;;-3.40;99.90;;;;;;5148257;27;1333518;-62
2021/12/25 10:12:40;;;;;;;9.10;1.57;;;-3.30;99.90;;;;;;5155064;27;20505;-63
2021/12/25 10:15:08;;;;;;;3.53;1.00;;;-3.30;99.90;;;;;;5155569;27;20042;-63
2021/12/25 10:17:41;;;;;;;2.77;0.90;;;-3.20;99.90;;;;;;5142158;27;20072;-63
2021/12/25 10:20:28;;;;;;;4.17;1.10;;;-3.20;99.90;;;;;;5134155;27;20046;-64
2021/12/25 10:23:07;;;;;;;5.22;0.93;;;-3.20;99.90;;;;;;5152225;27;20069;-63
2021/12/25 10:25:44;;;;;;;4.03;0.90;;;-3.20;99.90;;;;;;5116271;27;20149;-64
2021/12/25 10:28:10;;;;;;;;;;;-3.10;99.90;;;;;;5131519;27;20084;-63
2021/12/25 10:30:54;;;;;;;3.90;1.10;;;-3.10;99.90;;;;;;5133931;27;19930;-63
2021/12/25 10:33:41;;;;;;;6.77;1.00;;;-3.10;99.90;;;;;;5152160;27;20330;-64
2021/12/25 10:36:24;;;;;;;3.73;0.90;;;-2.60;99.90;;;;;;5152517;27;20047;-63
2021/12/25 10:39:09;;;;;;;4.00;1.10;;;-3.00;99.90;;;;;;5133588;27;20043;-62
2021/12/25 10:41:39;;;;;;;4.67;1.07;;;-3.00;99.90;;;;;;5116155;27;20179;-63
2021/12/25 10:44:20;;;;;;;3.47;1.00;;;-2.90;99.90;;;;;;5132297;27;20047;-64
2021/12/25 10:46:56;;;;;;;2.50;0.80;;;-2.90;99.90;;;;;;5133338;27;20058;-64
2021/12/25 10:49:24;;;;;;;3.03;0.98;;;-2.90;99.90;;;;;;5133230;27;20434;-64
2021/12/25 10:51:50;;;;;;;2.77;0.70;;;-2.90;99.90;;;;;;5134157;27;20043;-64
2021/12/25 10:54:17;;;;;;;4.32;0.90;;;-2.90;99.90;;;;;;5133631;27;20095;-64
2021/12/25 10:56:47;;;;;;;8.37;2.03;;;-2.80;99.90;;;;;;5133198;27;20046;-65
2021/12/25 10:59:18;;;;;;;4.33;1.07;;;-2.80;99.90;;;;;;5151190;27;20123;-65
2021/12/25 11:01:49;;;;;;;5.27;1.37;;;-2.80;99.90;;;;;;5115933;27;20050;-63
2021/12/25 11:04:36;;;;;;;4.07;0.93;;;-2.70;99.90;;;;;;5133249;27;20100;-64
2021/12/25 11:07:13;;;;;;;4.57;1.20;;;-2.70;99.90;;;;;;5151373;27;20093;-63
2021/12/25 11:09:39;;;;;;;5.93;1.43;;;-2.70;99.90;;;;;;5151159;27;20098;-63
2021/12/25 11:12:21;;;;;;;6.50;1.50;;;-2.70;99.90;;;;;;5116186;27;20135;-62
2021/12/25 11:14:48;;;;;;;5.13;1.40;;;-2.60;99.90;;;;;;5151243;27;20047;-62
2021/12/25 11:17:22;;;;;;;7.17;1.33;;;-2.60;99.90;;;;;;5154347;27;20049;-63
2021/12/25 11:20:02;;;;;;;4.63;1.50;;;-2.60;99.90;;;;;;5143952;27;20058;-65
2021/12/25 11:22:48;;;;;;;3.77;1.13;;;-2.60;99.90;;;;;;5136605;27;20050;-65
2021/12/25 11:25:15;;;;;;;5.17;1.30;;;-2.50;99.90;;;;;;5135630;27;20055;-62
2021/12/25 11:27:41;;;;;;;4.73;1.00;;;-2.50;99.90;;;;;;5118410;27;20118;-63
2021/12/25 11:30:07;;;;;;;5.07;1.48;;;-2.60;99.90;;;;;;5136913;27;20386;-63
2021/12/25 11:32:33;;;;;;;;;;;-2.50;99.90;;;;;;5137265;27;20035;-65
2021/12/25 11:34:59;;;;;;;5.00;1.30;;;-2.50;99.90;;;;;;5118401;27;19935;-64
2021/12/25 11:37:26;;;;;;;4.32;1.60;;;-2.50;99.90;;;;;;5118331;27;20057;-63
2021/12/25 11:39:54;;;;;;;4.57;1.27;;;-2.40;99.90;;;;;;5118297;27;20050;-63
2021/12/25 11:42:22;;;;;;;6.20;2.13;;;-2.40;99.90;;;;;;5136655;27;20047;-62
2021/12/25 11:44:52;;;;;;;4.27;1.53;;;-2.40;99.90;;;;;;5137093;27;20440;-64
2021/12/25 11:47:34;;;;;;;5.17;1.40;;;-2.40;99.90;;;;;;5136935;27;20047;-63
2021/12/25 11:50:03;;;;;;;3.03;1.13;;;-2.40;99.90;;;;;;5136865;27;20080;-63
2021/12/25 11:52:35;;;;;;;3.60;1.10;;;-2.30;99.90;;;;;;5118503;27;20047;-65
2021/12/25 11:56:20;;;;;;;4.50;1.40;;;-2.30;99.90;;;;;;5137032;27;20051;-63
2021/12/25 11:58:39;;;;;;;5.63;0.90;;;-2.30;99.90;;;;;;5130261;27;20490;-62
2021/12/25 12:01:35;;;;;;;4.80;1.70;;;-2.30;99.90;;;;;;5119077;27;20055;-63
2021/12/25 12:04:10;;;;;;;4.10;1.77;;;-2.30;99.90;;;;;;5117916;27;20047;-62
2021/12/25 12:06:47;;;;;;;3.33;1.20;;;-2.20;99.90;;;;;;5118052;27;20394;-63
2021/12/25 12:09:15;;;;;;;2.57;1.10;;;-2.20;99.90;;;;;;5113994;28;20495;-62
2021/12/25 12:11:43;;;;;;;3.37;1.40;;;-2.20;99.90;;;;;;5114900;28;20054;-62
2021/12/25 12:14:23;;;;;;;3.77;1.47;;;-2.20;99.90;;;;;;5115624;28;20079;-62
2021/12/25 12:16:56;;;;;;;6.97;1.70;;;-2.20;99.90;;;;;;5112760;28;20122;-64
2021/12/25 12:19:37;;;;;;;3.43;1.30;;;-2.20;99.90;;;;;;5115086;28;20088;-64
2021/12/25 12:22:34;;;;;;;2.90;1.37;;;-2.20;99.90;;;;;;5115295;28;20177;-63
2021/12/25 12:28:04;;;;;;;3.10;1.10;;;-2.10;99.90;;;;;;5114700;28;20464;-63
2021/12/25 12:30:37;;;;;;;3.90;1.02;;;-2.10;99.90;;;;;;5115037;28;20101;-63
2021/12/25 12:33:22;;;;;;;4.33;1.20;;;-2.10;99.90;;;;;;5114333;28;20035;-63
2021/12/25 12:35:53;;;;;;;3.63;1.03;;;-2.10;99.90;;;;;;5111431;28;20048;-64
2021/12/25 12:38:46;;;;;;;3.73;1.40;;;-2.10;99.90;;;;;;5113953;28;20148;-63
2021/12/25 12:41:22;;;;;;;6.53;1.60;;;-2.10;99.90;;;;;;5112929;28;20039;-63
2021/12/25 12:43:51;;;;;;;8.90;1.87;;;-2.00;99.90;;;;;;5111216;28;20491;-63
2021/12/25 12:46:19;;;;;;;3.87;1.43;;;-2.10;99.90;;;;;;5114873;28;20100;-64
2021/12/25 12:49:06;;;;;;;4.97;1.10;;;-2.10;99.90;;;;;;5114196;28;20051;-63
2021/12/25 12:51:32;;;;;;;4.10;1.17;;;-2.00;99.90;;;;;;5112618;28;20040;-63
2021/12/25 12:53:58;;;;;;;4.07;1.30;;;-2.00;99.90;;;;;;5113234;28;20545;-62
2021/12/25 12:56:24;;;;;;;4.82;1.33;;;-2.00;99.90;;;;;;5114481;28;20044;-64
2021/12/25 12:58:55;;;;;;;4.57;1.20;;;-2.00;99.90;;;;;;5113468;28;20608;-64
2021/12/25 13:01:22;;;;;;;2.53;1.03;;;-2.00;99.90;;;;;;5113484;28;20110;-63
2021/12/25 13:03:55;;;;;;;3.10;1.10;;;-2.00;99.90;;;;;;5110706;28;20551;-63
2021/12/25 13:06:20;;;;;;;5.73;1.40;;;-2.00;99.90;;;;;;5113428;28;20142;-64
2021/12/25 13:08:47;;;;;;;6.95;1.80;;;-2.00;99.90;;;;;;5112694;28;20542;-63
2021/12/25 13:11:32;;;;;;;6.10;1.30;;;-2.00;99.90;;;;;;5114329;28;20395;-65
2021/12/25 13:14:00;;;;;;;4.33;1.20;;;-2.00;99.90;;;;;;5111060;28;20047;-64
2021/12/25 13:16:40;;;;;;;3.37;1.07;;;-2.00;99.90;;;;;;5113904;28;20048;-63
2021/12/25 13:19:07;;;;;;;3.37;1.30;;;-1.90;99.90;;;;;;5113771;28;20047;-63
2021/12/25 13:21:35;;;;;;;4.40;1.10;;;-1.90;99.90;;;;;;5113031;28;20050;-63
2021/12/25 13:24:13;;;;;;;4.57;1.20;;;-1.90;99.90;;;;;;5112633;28;20160;-64
2021/12/25 13:26:47;;;;;;;4.63;1.40;;;-1.90;99.90;;;;;;5111093;28;20119;-64
2021/12/25 13:29:18;;;;;;;4.23;1.43;;;-1.90;99.90;;;;;;5113971;28;20085;-62
2021/12/25 13:31:45;;;;;;;5.27;1.60;;;-1.90;99.90;;;;;;5113962;27;20050;-64
2021/12/25 13:34:15;;;;;;;4.37;1.27;;;-1.90;99.90;;;;;;5113603;28;20376;-63
2021/12/25 13:36:46;;;;;;;6.77;1.83;;;-1.90;99.90;;;;;;5113426;28;20054;-64
2021/12/25 13:39:18;;;;;;;5.43;1.20;;;-1.90;99.90;;;;;;5111844;28;20040;-64
2021/12/25 13:41:45;;;;;;;4.93;1.30;;;-1.90;99.90;;;;;;5113368;28;20492;-64
2021/12/25 13:44:16;;;;;;;4.70;1.57;;;-1.90;99.90;;;;;;5112524;28;20591;-63
2021/12/25 13:47:00;;;;;;;5.00;1.60;;;-1.90;99.90;;;;;;5111637;28;20055;-63
2021/12/25 13:49:36;;;;;;;8.03;2.20;;;-1.90;99.90;;;;;;5110808;28;20036;-62
2021/12/25 13:52:06;;;;;;;6.40;1.90;;;-1.90;99.90;;;;;;5111932;28;20509;-63
2021/12/25 13:54:35;;;;;;;6.90;2.33;;;-1.90;99.90;;;;;;5106891;28;20134;-62
2021/12/25 13:57:01;;;;;;;5.17;1.60;;;-1.90;99.90;;;;;;5108829;28;20439;-64
2021/12/25 13:59:27;;;;;;;4.22;1.70;;;-1.90;99.90;;;;;;5111183;28;20071;-62
2021/12/25 14:02:12;;;;;;;5.50;2.00;;;-1.90;99.90;;;;;;5110572;28;20078;-63
2021/12/25 14:04:42;;;;;;;5.03;1.70;;;-1.90;99.90;;;;;;5112199;28;20376;-63
2021/12/25 14:07:10;;;;;;;3.70;1.43;;;-1.80;99.90;;;;;;5107788;28;20039;-64
2021/12/25 14:09:36;;;;;;;6.73;1.63;;;-1.90;99.90;;;;;;5128922;28;20065;-62
2021/12/25 14:12:03;;;;;;;4.90;1.60;;;-1.90;99.90;;;;;;5129736;28;20040;-64
2021/12/25 14:14:30;;;;;;;7.10;1.87;;;-1.90;99.90;;;;;;5113208;28;20054;-65
2021/12/25 14:16:58;;;;;;;3.90;1.30;;;-1.90;99.90;;;;;;5113490;27;20051;-64
2021/12/25 14:19:30;;;;;;;4.93;1.70;;;-1.90;99.90;;;;;;5132110;28;20382;-64
2021/12/25 14:21:59;;;;;;;6.57;2.60;;;-1.90;99.90;;;;;;5113653;28;20108;-64
2021/12/25 14:24:26;;;;;;;6.70;2.00;;;-1.90;99.90;;;;;;5113969;28;20051;-63
2021/12/25 14:27:07;;;;;;;4.87;1.63;;;-1.90;99.90;;;;;;5112611;28;20043;-64
2021/12/25 14:29:32;;;;;;;4.40;1.30;;;-1.90;99.90;;;;;;5131617;28;20084;-65
2021/12/25 14:31:58;;;;;;;4.10;1.52;;;-2.00;99.90;;;;;;5114205;28;20047;-62
2021/12/25 14:34:33;;;;;;;3.53;1.45;;;-2.00;99.90;;;;;;5113892;28;20043;-62
2021/12/25 14:36:59;;;;;;;4.83;1.30;;;-2.00;99.90;;;;;;5129711;28;20498;-62
2021/12/25 14:39:27;;;;;;;5.55;1.90;;;-2.10;99.90;;;;;;5114123;28;20046;-61
2021/12/25 14:41:53;;;;;;;4.77;1.93;;;-2.00;99.90;;;;;;5131446;28;20062;-62
2021/12/25 14:44:27;;;;;;;5.13;1.90;;;-2.00;99.90;;;;;;5129753;28;20123;-64
2021/12/25 14:47:14;;;;;;;4.33;1.73;;;-2.10;99.90;;;;;;5113187;28;20047;-62
2021/12/25 14:49:45;;;;;;;5.13;1.77;;;-2.10;99.90;;;;;;5112717;28;20055;-62
2021/12/25 14:52:13;;;;;;;3.33;1.57;;;-2.10;99.90;;;;;;5096794;28;20042;-64
2021/12/25 14:54:39;;;;;;;6.17;2.20;;;-2.10;99.90;;;;;;5133844;27;20043;-63
2021/12/25 14:57:05;;;;;;;3.67;1.63;;;-2.10;99.90;;;;;;5135820;27;20073;-63
2021/12/25 14:59:32;;;;;;;6.10;1.45;;;-2.20;99.90;;;;;;5114305;27;20047;-69
2021/12/25 15:02:00;;;;;;;4.77;1.40;;;-2.20;99.90;;;;;;5132613;27;20155;-63
2021/12/25 15:04:33;;;;;;;4.57;1.90;;;-2.20;99.90;;;;;;5118111;27;20118;-63
2021/12/25 15:07:06;;;;;;;5.50;1.50;;;-2.20;99.90;;;;;;5115306;27;20047;-64
2021/12/25 15:10:13;;;;;;;4.07;1.37;;;-2.30;99.90;;;;;;5115145;27;20055;-64
2021/12/25 15:12:42;;;;;;;3.80;1.40;;;-2.20;99.90;;;;;;5131608;27;20055;-63
2021/12/25 15:15:10;;;;;;;3.43;1.30;;;-2.30;99.90;;;;;;5133156;27;20474;-63
2021/12/25 15:17:37;;;;;;;5.73;1.50;;;-2.40;99.90;;;;;;5117087;27;20539;-63
2021/12/25 15:20:12;;;;;;;3.40;1.30;;;-2.40;99.90;;;;;;5134320;27;20038;-63
2021/12/25 15:22:39;;;;;;;5.03;1.57;;;-2.40;99.90;;;;;;5115141;27;20059;-64
2021/12/25 15:25:27;;;;;;;5.13;1.20;;;-2.50;99.90;;;;;;5131332;27;20076;-63
2021/12/25 15:27:56;;;;;;;3.47;1.33;;;-2.50;99.90;;;;;;5131888;27;20403;-62
2021/12/25 15:30:40;;;;;;;3.67;1.30;;;-2.50;99.90;;;;;;5117017;27;20143;-60
2021/12/25 15:33:12;;;;;;;4.23;1.50;;;-2.50;99.90;;;;;;5135187;27;20095;-62
2021/12/25 15:35:42;;;;;;;3.70;1.20;;;-2.60;99.90;;;;;;5115611;27;20180;-62
2021/12/25 15:38:10;;;;;;;4.87;1.60;;;-2.60;99.90;;;;;;5116233;27;20636;-64
2021/12/25 15:40:46;;;;;;;6.07;2.40;;;-2.60;99.90;;;;;;5116016;27;20042;-64
2021/12/25 15:43:11;;;;;;;5.07;2.17;;;-2.60;99.90;;;;;;5100173;27;20050;-64
2021/12/25 15:45:37;;;;;;;4.65;2.00;;;-2.70;99.90;;;;;;5134891;27;20088;-62
2021/12/25 15:48:04;;;;;;;8.10;3.10;;;-2.70;99.90;;;;;;5135074;27;20042;-65
2021/12/25 15:50:48;;;;;;;6.80;1.97;;;-2.70;99.90;;;;;;5133842;27;20046;-65
2021/12/25 15:53:15;;;;;;;6.77;2.23;;;-2.80;99.90;;;;;;5130838;27;20047;-64
2021/12/25 15:55:40;;;;;;;3.53;1.77;;;-2.80;99.90;;;;;;5110841;27;20059;-65
2021/12/25 15:58:08;;;;;;;6.22;1.92;;;-2.80;99.90;;;;;;5114348;27;20406;-64
2021/12/25 16:00:38;;;;;;;9.53;2.73;;;-2.80;99.90;;;;;;5134684;27;20100;-65
2021/12/25 16:03:04;;;;;;;6.43;2.30;;;-2.80;99.90;;;;;;5116363;27;20039;-65
2021/12/25 16:05:30;;;;;;;18.27;8.83;;;-2.90;99.90;;;;;;5133691;27;20039;-64
2021/12/25 16:07:56;;;;;;;13.50;7.10;;;-2.90;99.90;;;;;;5133477;27;20059;-64
2021/12/25 16:10:23;;;;;;;11.17;4.97;;;-2.90;99.90;;;;;;5115316;27;20043;-65
2021/12/25 16:12:50;;;;;;;12.30;7.00;;;-2.90;99.90;;;;;;5133741;27;20046;-67
2021/12/25 16:15:16;;;;;;;8.73;6.15;;;-3.00;99.90;;;;;;5114700;27;20071;-64
2021/12/25 16:17:41;;;;;;;;;;;-3.10;99.90;;;;;;5115229;27;20057;-64
2021/12/25 16:20:08;;;;;;;11.23;6.30;;;-3.10;99.90;;;;;;5133082;27;20006;-65
2021/12/25 16:22:34;;;;;;;8.60;4.57;;;-3.20;99.90;;;;;;5134174;27;20073;-64
2021/12/25 16:24:59;;;;;;;12.82;3.45;;;-3.20;99.90;;;;;;5116220;27;20039;-63
2021/12/25 16:27:25;;;;;;;10.50;4.32;;;-3.30;99.90;;;;;;5133862;27;20095;-65
2021/12/25 16:29:51;;;;;;;13.00;6.78;;;-3.30;99.90;;;;;;5134584;27;20387;-64
2021/12/25 16:32:16;;;;;;;16.08;9.50;;;-3.30;99.90;;;;;;5110944;27;20041;-64
2021/12/25 16:34:44;;;;;;;10.20;4.35;;;-3.30;99.90;;;;;;5133054;27;20514;-63
2021/12/25 16:37:10;;;;;;;8.80;3.27;;;-3.40;99.90;;;;;;5130236;27;20747;-65
2021/12/25 16:39:36;;;;;;;10.70;3.97;;;-3.40;99.90;;;;;;5132377;27;20039;-65
2021/12/25 16:42:03;;;;;;;11.02;5.47;;;-3.40;99.90;;;;;;5130757;27;20046;-63
2021/12/25 16:44:30;;;;;;;11.10;4.93;;;-3.40;99.90;;;;;;5109151;27;20040;-65
2021/12/25 16:46:56;;;;;;;5.07;2.77;;;-3.40;99.90;;;;;;5133847;27;20148;-64
2021/12/25 16:49:25;;;;;;;9.50;4.22;;;-3.40;99.90;;;;;;5116092;27;20043;-64
2021/12/25 16:51:51;;;;;;;7.87;3.30;;;-3.40;99.90;;;;;;5133975;27;20035;-64
2021/12/25 16:54:17;;;;;;;11.15;4.93;;;-3.40;99.90;;;;;;5134053;27;20043;-64
2021/12/25 16:56:48;;;;;;;;;;;-3.50;99.90;;;;;;5115616;27;20058;-65
2021/12/25 16:59:15;;;;;;;6.60;2.50;;;-3.50;99.90;;;;;;5133601;27;19919;-65
2021/12/25 17:01:41;;;;;;;8.70;3.60;;;-3.50;99.90;;;;;;5133738;27;20050;-65
2021/12/25 17:04:06;;;;;;;16.52;5.10;;;-3.50;99.90;;;;;;5133629;27;20039;-65
2021/12/25 17:06:32;;;;;;;9.90;4.32;;;-3.50;99.90;;;;;;5131468;27;20372;-64
2021/12/25 17:08:58;;;;;;;10.77;4.05;;;-3.50;99.90;;;;;;5133205;27;20360;-64
2021/12/25 17:11:24;;;;;;;16.92;8.50;;;-3.60;99.90;;;;;;5133639;27;20051;-64
2021/12/25 17:13:51;;;;;;;18.00;8.03;;;-3.60;99.90;;;;;;5131221;27;20479;-65
2021/12/25 17:16:17;;;;;;;16.17;7.73;;;-3.60;99.90;;;;;;5133749;27;20068;-64
2021/12/25 17:18:43;;;;;;;14.13;7.43;;;-3.70;99.90;;;;;;5133593;27;20466;-62
2021/12/25 17:21:09;;;;;;;13.18;6.45;;;-3.70;99.90;;;;;;5133524;27;20078;-65
2021/12/25 17:23:35;;;;;;;10.10;5.15;;;-3.70;99.90;;;;;;5115639;27;20047;-62
2021/12/25 17:26:01;;;;;;;9.68;4.07;;;-3.70;99.90;;;;;;5115124;27;20126;-64
2021/12/25 17:28:28;;;;;;;10.27;4.20;;;-3.70;99.90;;;;;;5115072;27;20039;-62
2021/12/25 17:30:55;;;;;;;;;;;-3.80;99.90;;;;;;5114775;27;20389;-62
2021/12/25 17:33:23;;;;;;;7.72;3.97;;;-3.80;99.90;;;;;;5133802;27;19926;-63
2021/12/25 17:35:56;;;;;;;8.17;3.50;;;-3.80;99.90;;;;;;5128180;27;20398;-63
2021/12/25 17:38:25;;;;;;;10.67;4.97;;;-3.80;99.90;;;;;;5114816;27;20047;-65
2021/12/25 17:40:51;;;;;;;7.97;3.20;;;-3.80;99.90;;;;;;5113904;27;20047;-66
2021/12/25 17:43:18;;;;;;;;;;;-3.90;99.90;;;;;;5111224;27;20131;-63
2021/12/25 17:45:43;;;;;;;5.57;2.83;;;-3.80;99.90;;;;;;5113922;27;19919;-62
2021/12/25 17:48:09;;;;;;;7.95;2.95;;;-3.80;99.90;;;;;;5132619;27;20046;-64
2021/12/25 17:50:37;;;;;;;10.20;3.70;;;-3.80;99.90;;;;;;5132081;27;20504;-65
2021/12/25 17:53:04;;;;;;;7.17;3.43;;;-3.90;99.90;;;;;;5114665;27;20117;-64
2021/12/25 17:55:30;;;;;;;9.87;5.03;;;-3.90;99.90;;;;;;5132934;27;20121;-64
2021/12/25 17:57:57;;;;;;;6.70;3.07;;;-3.90;99.90;;;;;;5132424;27;20099;-64
2021/12/25 18:00:32;;;;;;;8.47;4.17;;;-3.90;99.90;;;;;;5133043;27;20043;-65
2021/12/25 18:02:58;;;;;;;7.80;3.03;;;-3.90;99.90;;;;;;5114374;27;20050;-65
2021/12/25 18:05:24;;;;;;;9.18;3.35;;;-3.90;99.90;;;;;;5114618;27;20046;-63
2021/12/25 18:07:50;;;;;;;7.65;3.20;;;-3.90;99.90;;;;;;5132385;27;20078;-66
2021/12/25 18:10:18;;;;;;;10.10;4.25;;;-3.90;99.90;;;;;;5132282;28;20118;-65
2021/12/25 18:12:44;;;;;;;7.70;2.60;;;-3.90;99.90;;;;;;5131978;28;20039;-63
2021/12/25 18:15:11;;;;;;;;;;;-3.90;99.90;;;;;;5131004;28;20053;-64
2021/12/25 18:17:38;;;;;;;;;;;-4.00;99.90;;;;;;5087772;28;19946;-65
2021/12/25 18:20:06;;;;;;;17.47;8.50;;;-4.00;99.90;;;;;;5130667;28;19919;-65
2021/12/25 18:22:31;;;;;;;18.73;9.03;;;-4.00;99.90;;;;;;5115861;28;20288;-64
2021/12/25 18:24:57;;;;;;;15.27;6.57;;;-4.00;99.90;;;;;;5134131;28;20394;-63
2021/12/25 18:27:23;;;;;;;7.38;4.10;;;-4.00;99.90;;;;;;5113489;28;20047;-64
2021/12/25 18:29:50;;;;;;;10.63;4.33;;;-4.00;99.90;;;;;;5131609;27;20092;-66
2021/12/25 18:32:15;;;;;;;;;;;-4.00;99.90;;;;;;5120510;27;20423;-64
2021/12/25 18:34:41;;;;;;;6.50;3.70;;;-4.00;99.90;;;;;;5136265;27;19926;-64
2021/12/25 18:37:07;;;;;;;7.50;3.67;;;-4.10;99.90;;;;;;5115539;27;20367;-64
2021/12/25 18:39:33;;;;;;;6.43;3.28;;;-4.10;99.90;;;;;;5136227;27;20436;-64
2021/12/25 18:41:59;;;;;;;10.15;3.25;;;-4.10;99.90;;;;;;5101229;27;20395;-64
2021/12/25 18:44:24;;;;;;;6.32;3.67;;;-4.10;99.90;;;;;;5136685;27;20047;-63
2021/12/25 18:46:52;;;;;;;5.22;3.00;;;-4.10;99.90;;;;;;5118105;27;20166;-64
2021/12/25 18:49:18;;;;;;;4.37;2.47;;;-4.10;99.90;;;;;;5136384;27;20047;-63
2021/12/25 18:51:44;;;;;;;7.20;3.28;;;-4.10;99.90;;;;;;5135691;27;20065;-63
2021/12/25 18:54:10;;;;;;;4.72;2.70;;;-4.10;99.90;;;;;;5119010;27;20039;-64
2021/12/25 18:56:35;;;;;;;9.25;4.70;;;-4.10;99.90;;;;;;5136262;27;20043;-65
2021/12/25 18:59:02;;;;;;;11.10;4.68;;;-4.10;99.90;;;;;;5136754;27;20398;-63
2021/12/25 19:01:28;;;;;;;6.57;4.03;;;-4.40;99.90;;;;;;5137273;27;20058;-64
2021/12/25 19:03:54;;;;;;;6.55;4.00;;;-4.10;99.90;;;;;;5085111;27;20039;-66
2021/12/25 19:06:19;;;;;;;7.00;4.03;;;-4.20;99.90;;;;;;5137241;27;20051;-66
2021/12/25 19:08:45;;;;;;;8.68;4.60;;;-4.20;99.90;;;;;;5136323;27;20437;-64
2021/12/25 19:11:11;;;;;;;7.80;4.38;;;-4.20;99.90;;;;;;5136754;27;20054;-63
2021/12/25 19:13:42;;;;;;;6.47;3.60;;;-4.20;99.90;;;;;;5117818;27;20138;-64
2021/12/25 19:16:09;;;;;;;8.60;4.27;;;-4.20;99.90;;;;;;5118857;27;20126;-64
2021/12/25 19:18:35;;;;;;;6.67;3.13;;;-4.20;99.90;;;;;;5137098;27;20147;-63
2021/12/25 19:21:02;;;;;;;7.57;3.37;;;-4.20;99.90;;;;;;5119019;27;20419;-64
2021/12/25 19:23:28;;;;;;;8.80;4.10;;;-4.20;99.90;;;;;;5137580;27;20501;-64
2021/12/25 19:25:56;;;;;;;9.30;4.80;;;-4.30;99.90;;;;;;5137424;27;20126;-64
2021/12/25 19:28:22;;;;;;;7.47;3.10;;;-4.30;99.90;;;;;;5118853;27;20035;-64
2021/12/25 19:30:48;;;;;;;5.82;3.15;;;-4.30;99.90;;;;;;5137392;27;20089;-64
2021/12/25 19:33:17;;;;;;;5.37;2.73;;;-4.30;99.90;;;;;;5119879;27;20130;-64
2021/12/25 19:35:44;;;;;;;6.00;3.00;;;-4.30;99.90;;;;;;5137185;27;20082;-63
2021/12/25 19:38:15;;;;;;;6.63;2.70;;;-4.30;99.90;;;;;;5137172;27;20043;-64
2021/12/25 19:40:42;;;;;;;20.60;12.53;;;-4.40;99.90;;;;;;5136146;27;20042;-63
2021/12/25 19:43:09;;;;;;;6.83;2.73;;;-4.40;99.90;;;;;;5118496;27;20050;-64
2021/12/25 19:45:36;;;;;;;5.13;2.23;;;-4.40;99.90;;;;;;5118499;27;20043;-64
2021/12/25 19:48:06;;;;;;;6.23;2.77;;;-4.40;99.90;;;;;;5136534;27;20051;-64
2021/12/25 19:50:34;;;;;;;5.97;2.73;;;-4.50;99.90;;;;;;5136843;27;20050;-63
2021/12/25 19:53:02;;;;;;;7.97;2.33;;;-4.50;99.90;;;;;;5118877;27;20058;-64
2021/12/25 19:55:27;;;;;;;5.20;2.43;;;-4.50;99.90;;;;;;5118326;27;20051;-64
2021/12/25 19:57:55;;;;;;;5.47;2.63;;;-4.50;99.90;;;;;;5101369;27;20182;-63
2021/12/25 20:00:30;;;;;;;7.40;3.20;;;-4.50;99.90;;;;;;5101700;27;20103;-62
2021/12/25 20:02:59;;;;;;;4.73;2.57;;;-4.50;99.90;;;;;;5117839;27;20067;-62
2021/12/25 20:05:25;;;;;;;4.73;2.77;;;-4.60;99.90;;;;;;5118126;27;20039;-64
2021/12/25 20:07:51;;;;;;;5.17;2.40;;;-4.60;99.90;;;;;;5135739;27;20043;-63
2021/12/25 20:10:20;;;;;;;4.00;2.10;;;-4.60;99.90;;;;;;5118558;27;20479;-62
2021/12/25 20:12:46;;;;;;;10.30;3.50;;;-4.60;99.90;;;;;;5118828;27;20047;-64
2021/12/25 20:15:13;;;;;;;7.95;2.67;;;-4.60;99.90;;;;;;5135619;27;20047;-63
2021/12/25 20:17:39;;;;;;;5.90;2.43;;;;;;;;;;5115696;27;20086;-66
2021/12/25 20:20:07;;;;;;;;;;;-4.70;99.90;;;;;;5116313;27;20043;-63
2021/12/25 20:22:33;;;;;;;7.90;3.00;;;-4.70;99.90;;;;;;5118145;27;19962;-63
2021/12/25 20:24:59;;;;;;;6.05;2.55;;;-4.70;99.90;;;;;;5136670;27;20085;-63
2021/12/25 20:27:25;;;;;;;6.20;2.17;;;-4.80;99.90;;;;;;5117682;27;20055;-63
2021/12/25 20:29:51;;;;;;;5.05;2.10;;;-4.70;99.90;;;;;;5100865;27;20043;-62
2021/12/25 20:32:17;;;;;;;7.63;2.08;;;-4.90;99.90;;;;;;5136309;27;20435;-64
2021/12/25 20:34:43;;;;;;;6.07;2.53;;;-4.80;99.90;;;;;;5117844;27;20500;-64
2021/12/25 20:37:09;;;;;;;8.27;2.60;;;-4.80;99.90;;;;;;5136191;27;20047;-66
2021/12/25 20:39:34;;;;;;;5.70;2.63;;;-4.90;99.90;;;;;;5118079;27;20070;-64
2021/12/25 20:42:01;;;;;;;7.88;2.38;;;-4.90;99.90;;;;;;5100370;27;20046;-64
2021/12/25 20:47:07;;;;;;;7.90;2.87;;;-4.90;99.90;;;;;;5117991;27;19919;-65
2021/12/25 20:49:33;;;;;;;4.23;2.30;;;-4.90;99.90;;;;;;5135702;27;20050;-65
2021/12/25 20:52:02;;;;;;;;;;;-4.90;99.90;;;;;;5117115;28;20039;-65
2021/12/25 20:54:30;;;;;;;5.57;2.50;;;-4.90;99.90;;;;;;5116722;27;19926;-64
2021/12/25 20:57:05;;;;;;;5.57;2.30;;;-4.90;99.90;;;;;;5132474;27;20050;-64
2021/12/25 20:59:31;;;;;;;9.23;2.70;;;;;;;;;;5135340;27;20503;-64
2021/12/25 21:01:58;;;;;;;6.80;2.60;;;-5.00;99.90;;;;;;5117989;27;20091;-65
2021/12/25 21:04:24;;;;;;;6.83;2.53;;;-4.90;99.90;;;;;;5116701;27;20453;-63
2021/12/25 21:06:51;;;;;;;7.22;2.90;;;-5.00;99.90;;;;;;5097964;27;20047;-63
2021/12/25 21:09:19;;;;;;;5.87;2.67;;;-5.00;99.90;;;;;;5134664;27;20051;-64
2021/12/25 21:11:46;;;;;;;7.07;2.60;;;-5.00;99.90;;;;;;5134362;27;20051;-64
2021/12/25 21:14:16;;;;;;;;;;;-5.00;99.90;;;;;;5116918;27;20047;-63
2021/12/25 21:16:42;;;;;;;8.37;3.23;;;-5.00;99.90;;;;;;5114216;27;19919;-64
2021/12/25 21:19:08;;;;;;;7.50;2.95;;;-5.00;99.90;;;;;;5133459;27;20390;-63
2021/12/25 21:21:34;;;;;;;;;;;-5.00;99.90;;;;;;5134456;27;20111;-64
2021/12/25 21:24:02;;;;;;;5.30;2.10;;;-5.00;99.90;;;;;;5115921;27;20409;-65
2021/12/25 21:26:29;;;;;;;5.60;2.30;;;-5.00;99.90;;;;;;5117102;27;20035;-64
